AirNav   Everest Fuels
 
 1308 users online  

SN64 Eck Field Airport
Goddard, Kansas, USA

GOING TO GODDARD?


FAA INFORMATION EFFECTIVE 15 JULY 2021

Location

FAA Identifier: SN64
Lat/Long: 37-41-47.9500N 097-32-38.1500W
37-41.799167N 097-32.635833W
37.6966528,-97.5439306
(estimated)
Elevation: 1413 ft. / 431 m (estimated)
From city: 2 miles NE of GODDARD, KS
Time zone: UTC -5 (UTC -6 during Standard Time)
Zip code: 67052

Airport Operations

Airport use: Private use. Permission required prior to landing
Activation date: 11/1972
Control tower: no
ARTCC: KANSAS CITY CENTER
FSS: WICHITA FLIGHT SERVICE STATION
Attendance: UNATNDD
Wind indicator: yes
Segmented circle: no

Airport Communications

WX ASOS at ICT (6 nm SE): PHONE 316-945-8022
WX AWOS-3PT at BEC (16 nm E): 119.45 (316-515-7116)
WX ASOS at AAO (16 nm E): 134.025 (316-636-2541)

Nearby radio navigation aids

VOR radial/distance  VOR name  Freq  Var
ICTr140/3.5WICHITA VORTAC113.8007E
HUTr130/25.8HUTCHINSON VOR/DME116.8004E

 
NDB name  Hdg/Dist  Freq  Var  ID
PICHE326/8.233204EIC .. -.-.

Airport Services

Airframe service: NONE
Powerplant service: NONE

Runway Information

Runway 18/36

Dimensions: 2499 x 70 ft. / 762 x 21 m
Surface: turf
RUNWAY 18  RUNWAY 36
Latitude: 37-42.005167N37-41.593500N
Longitude: 097-32.641167W097-32.630333W
Elevation: 1399.0 ft.1413.0 ft.
Traffic pattern: leftleft
Runway heading: 179 true359 true

Airport Ownership and Management from official FAA records

Ownership: Privately-owned
Owner: ECK FILED FLYERS INC
4515 S. WASHINGTON CT.
WICHITA, KS 67216
Phone 316-524-3645
Manager: ECK FILED FLYERS INC
4515 S. WASHINGTON CT.
WICHITA, KS 67216
Phone 316-524-3645

Airport Operational Statistics

Aircraft based on the field: 12
Single engine airplanes: 12
    

Additional Remarks

FOR CD CTC WICHITA APCH AT 316-350-1520.

Instrument Procedures

There are no published instrument procedures at SN64.

Some nearby airports with instrument procedures:

KICT - Wichita Dwight D Eisenhower National Airport (6 nm SE)
KIAB - Mc Connell Air Force Base (14 nm E)
KCEA - Cessna Aircraft Field Airport (14 nm E)
KBEC - Beech Factory Airport (16 nm E)
KAAO - Colonel James Jabara Airport (16 nm E)
 
Loc | Ops | Rwys | IFR | FBO | Links
Com | Nav | Svcs | Stats | Notes
Area around SN64 (Eck Field Airport)
 
Road maps at: MapQuest Bing Google
 
Aerial photo
No photo
 
Sectional chart

 
Airport distance calculator
Flying to Eck Field Airport? Find the distance to fly.

From to SN64

Sunrise and sunset
Times for 05-Aug-2021
 Local
(UTC-5)
 Zulu
(UTC)
Morning civil twilight06:0911:09
Sunrise06:3811:38
Sunset20:3401:34
Evening civil twilight21:0302:03

Current date and time
Zulu (UTC)  05-Aug-2021 13:44:18
Local (UTC-5)  05-Aug-2021 08:44:18
 
METAR
KICT 
6nm SE 
051253Z 18006KT 9SM SCT100 22/17 A3007 RMK AO2 SLP171 T02170172
KIAB 
14nm E 
051256Z AUTO 20006KT 10SM FEW200 22/17 A3008 RMK AO2 SLP176 T02170171 $
KBEC 
16nm E 
051335Z AUTO 20007KT 10SM CLR 23/16 A3008 RMK AO2 T02250162
KAAO 
16nm E 
051254Z AUTO 19009KT 10SM CLR 23/16 A3007 RMK AO2 SLP169 T02280161
TAF
KICT 
6nm SE 
051126Z 0512/0612 18005KT P6SM SCT030 BKN100 FM052000 18010KT P6SM FEW060 SCT200 FM060400 16009KT P6SM FEW250
KIAB 
14nm E 
051000Z 0510/0616 18012KT 9999 SCT080 BKN180 QNH3004INS BECMG 0520/0521 17010KT 9999 FEW120 QNH2995INS BECMG 0614/0615 21015KT 9999 SKC QNH2996INS TX31/0520Z TN19/0610Z
NOTAMs
Click for the latest NOTAMs
NOTAMs are issued by the DoD/FAA and will open in a separate window not controlled by AirNav.

 

 
 

Would you like to see your business listed on this page?

 If your business provides an interesting product or service to pilots, flight crews, aircraft, or users of the Eck Field Airport, you should consider listing it here.  To start the listing process, click on the button below
 
Add a business
 

Other Pages about Eck Field Airport

Update a link
 
Copyright © AirNav, LLC. All rights reserved. Privacy Policy  Contact